createdAt,value
2023-05-02T00:00:22.892Z,535.00
2023-05-02T00:01:12.925Z,534.00
2023-05-02T00:02:02.995Z,543.00
2023-05-02T00:02:53.301Z,530.00
2023-05-02T00:03:43.157Z,536.00
2023-05-02T00:04:33.141Z,535.00
2023-05-02T00:05:23.218Z,536.00
2023-05-02T00:06:13.297Z,536.00
2023-05-02T00:07:03.253Z,537.00
2023-05-02T00:07:53.327Z,530.00
2023-05-02T00:08:43.408Z,536.00
2023-05-02T00:09:33.435Z,545.00
2023-05-02T00:10:23.513Z,557.00
2023-05-02T00:11:13.543Z,555.00
2023-05-02T00:12:03.612Z,551.00
2023-05-02T00:12:53.680Z,538.00
2023-05-02T00:13:43.748Z,535.00
2023-05-02T00:14:33.990Z,546.00
2023-05-02T00:15:24.075Z,546.00
2023-05-02T00:16:14.100Z,546.00
2023-05-02T00:17:04.528Z,547.00
2023-05-02T00:17:54.478Z,547.00
2023-05-02T00:18:44.529Z,542.00
2023-05-02T00:19:34.601Z,551.00
2023-05-02T00:20:24.684Z,546.00
2023-05-02T00:21:14.699Z,550.00
2023-05-02T00:22:04.783Z,556.00
2023-05-02T00:22:54.836Z,551.00
2023-05-02T00:23:44.914Z,556.00
2023-05-02T00:24:34.986Z,544.00
2023-05-02T00:25:25.053Z,548.00
2023-05-02T00:26:15.065Z,548.00
2023-05-02T00:27:05.124Z,554.00
2023-05-02T00:27:55.317Z,547.00
2023-05-02T00:28:45.396Z,561.00
2023-05-02T00:29:35.460Z,561.00
2023-05-02T00:30:25.810Z,558.00
2023-05-02T00:31:15.922Z,547.00
2023-05-02T00:32:05.905Z,545.00
2023-05-02T00:32:56.037Z,554.00
2023-05-02T00:33:46.046Z,556.00
2023-05-02T00:34:36.115Z,557.00
2023-05-02T00:35:26.234Z,551.00
2023-05-02T00:36:16.275Z,543.00
2023-05-02T00:37:06.323Z,543.00
2023-05-02T00:37:56.415Z,549.00
2023-05-02T00:38:46.450Z,550.00
2023-05-02T00:39:36.654Z,545.00
2023-05-02T00:40:26.733Z,542.00
2023-05-02T00:41:16.765Z,541.00
2023-05-02T00:42:07.087Z,540.00
2023-05-02T00:42:57.154Z,540.00
2023-05-02T00:43:47.225Z,539.00
2023-05-02T00:44:37.511Z,526.00
2023-05-02T00:45:27.548Z,528.00
2023-05-02T00:46:17.725Z,524.00
2023-05-02T00:47:07.687Z,518.00
2023-05-02T00:47:57.756Z,529.00
2023-05-02T00:48:47.799Z,517.00
2023-05-02T00:49:37.871Z,530.00
2023-05-02T00:50:27.950Z,529.00
2023-05-02T00:51:17.991Z,528.00
2023-05-02T00:52:08.051Z,528.00
2023-05-02T00:52:58.206Z,519.00
2023-05-02T00:53:48.383Z,518.00
2023-05-02T00:54:38.429Z,526.00
2023-05-02T00:55:28.519Z,513.00
2023-05-02T00:56:18.804Z,521.00
2023-05-02T00:57:08.874Z,513.00
2023-05-02T00:57:58.935Z,522.00
2023-05-02T00:58:49.255Z,515.00
2023-05-02T00:59:39.337Z,511.00
2023-05-02T01:00:29.378Z,515.00
2023-05-02T01:01:19.441Z,520.00
2023-05-02T01:02:09.509Z,516.00
2023-05-02T01:02:59.624Z,514.00
2023-05-02T01:03:49.637Z,511.00
2023-05-02T01:04:39.635Z,511.00
2023-05-02T01:05:29.752Z,514.00
2023-05-02T01:06:19.849Z,519.00
2023-05-02T01:07:09.835Z,515.00
2023-05-02T01:08:00.084Z,511.00
2023-05-02T01:08:50.141Z,515.00
2023-05-02T01:09:40.241Z,515.00
2023-05-02T01:10:30.269Z,505.00
2023-05-02T01:11:20.295Z,505.00
2023-05-02T01:12:10.359Z,506.00
2023-05-02T01:13:00.448Z,508.00
2023-05-02T01:13:50.486Z,505.00
2023-05-02T01:14:40.560Z,511.00
2023-05-02T01:15:30.598Z,510.00
2023-05-02T01:16:20.676Z,504.00
2023-05-02T01:17:10.909Z,510.00
2023-05-02T01:18:01.010Z,504.00
2023-05-02T01:18:51.027Z,505.00
2023-05-02T01:19:41.097Z,507.00
2023-05-02T01:20:31.178Z,515.00
2023-05-02T01:21:21.218Z,519.00
2023-05-02T01:22:11.243Z,515.00
2023-05-02T01:23:01.305Z,514.00
2023-05-02T01:23:51.368Z,513.00
2023-05-02T01:24:41.440Z,508.00
2023-05-02T01:25:31.551Z,510.00
2023-05-02T01:26:21.731Z,506.00
2023-05-02T01:27:11.790Z,504.00
2023-05-02T01:28:01.855Z,512.00
2023-05-02T01:28:52.172Z,508.00
2023-05-02T01:29:42.233Z,511.00
2023-05-02T01:30:32.320Z,509.00
2023-05-02T01:31:22.444Z,513.00
2023-05-02T01:32:12.423Z,523.00
2023-05-02T01:33:02.543Z,507.00
2023-05-02T01:33:52.519Z,511.00
2023-05-02T01:34:42.591Z,509.00
2023-05-02T01:35:32.672Z,506.00
2023-05-02T01:36:22.699Z,510.00
2023-05-02T01:37:12.774Z,508.00
2023-05-02T01:38:03.086Z,510.00
2023-05-02T01:38:53.142Z,521.00
2023-05-02T01:39:43.210Z,520.00
2023-05-02T01:40:33.558Z,517.00
2023-05-02T01:41:23.598Z,506.00
2023-05-02T01:42:13.640Z,511.00
2023-05-02T01:43:03.703Z,510.00
2023-05-02T01:43:53.725Z,508.00
2023-05-02T01:44:44.771Z,516.00
2023-05-02T01:45:33.857Z,519.00
2023-05-02T01:46:23.896Z,515.00
2023-05-02T01:47:14.050Z,524.00
2023-05-02T01:48:04.086Z,530.00
2023-05-02T01:48:54.048Z,526.00
2023-05-02T01:49:44.112Z,512.00
2023-05-02T01:50:34.196Z,510.00
2023-05-02T01:51:24.224Z,518.00
2023-05-02T01:52:14.279Z,523.00
2023-05-02T01:53:04.358Z,515.00
2023-05-02T01:53:54.417Z,515.00
2023-05-02T01:54:44.482Z,513.00
2023-05-02T01:55:34.559Z,514.00
2023-05-02T01:56:24.746Z,514.00
2023-05-02T01:57:14.852Z,507.00
2023-05-02T01:58:04.864Z,516.00
2023-05-02T01:58:54.879Z,519.00
2023-05-02T01:59:44.940Z,521.00
2023-05-02T02:00:35.067Z,516.00
2023-05-02T02:01:25.106Z,513.00
2023-05-02T02:02:15.104Z,513.00
2023-05-02T02:03:05.178Z,523.00
2023-05-02T02:03:55.210Z,525.00
2023-05-02T02:04:45.375Z,520.00
2023-05-02T02:05:35.328Z,527.00
2023-05-02T02:06:25.368Z,524.00
2023-05-02T02:07:15.406Z,526.00
2023-05-02T02:08:05.492Z,523.00
2023-05-02T02:08:55.506Z,523.00
2023-05-02T02:09:45.586Z,536.00
2023-05-02T02:10:35.667Z,525.00
2023-05-02T02:11:25.718Z,524.00
2023-05-02T02:12:15.982Z,521.00
2023-05-02T02:13:06.080Z,524.00
2023-05-02T02:13:56.075Z,516.00
2023-05-02T02:14:46.166Z,526.00
2023-05-02T02:15:36.227Z,529.00
2023-05-02T02:16:26.331Z,524.00
2023-05-02T02:17:16.301Z,533.00
2023-05-02T02:18:06.410Z,537.00
2023-05-02T02:18:56.441Z,530.00
2023-05-02T02:19:46.507Z,528.00
2023-05-02T02:20:36.549Z,527.00
2023-05-02T02:21:26.746Z,539.00
2023-05-02T02:22:16.807Z,529.00
2023-05-02T02:23:06.885Z,528.00
2023-05-02T02:23:56.899Z,540.00
2023-05-02T02:24:46.999Z,546.00
2023-05-02T02:25:37.084Z,549.00
2023-05-02T02:26:27.091Z,542.00
2023-05-02T02:27:17.158Z,545.00
2023-05-02T02:28:07.252Z,537.00
2023-05-02T02:28:57.264Z,548.00
2023-05-02T02:29:47.308Z,552.00
2023-05-02T02:30:37.649Z,556.00
2023-05-02T02:31:27.689Z,553.00
2023-05-02T02:32:17.697Z,563.00
2023-05-02T02:33:07.869Z,557.00
2023-05-02T02:33:58.319Z,556.00
2023-05-02T02:34:47.886Z,550.00
2023-05-02T02:35:37.956Z,534.00
2023-05-02T02:36:27.972Z,536.00
2023-05-02T02:37:18.119Z,531.00
2023-05-02T02:38:08.192Z,536.00
2023-05-02T02:38:58.216Z,543.00
2023-05-02T02:39:48.275Z,555.00
2023-05-02T02:40:38.359Z,571.00
2023-05-02T02:41:28.385Z,576.00
2023-05-02T02:42:18.448Z,590.00
2023-05-02T02:43:08.555Z,595.00
2023-05-02T02:43:58.572Z,601.00
2023-05-02T02:44:48.686Z,604.00
2023-05-02T02:45:38.722Z,616.00
2023-05-02T02:46:29.073Z,622.00
2023-05-02T02:47:19.040Z,627.00
2023-05-02T02:48:09.182Z,625.00
2023-05-02T02:48:59.210Z,626.00
2023-05-02T02:49:49.223Z,625.00
2023-05-02T02:50:39.267Z,630.00
2023-05-02T02:51:29.300Z,638.00
2023-05-02T02:52:19.360Z,639.00
2023-05-02T02:53:09.447Z,641.00
2023-05-02T02:53:59.487Z,640.00
2023-05-02T02:54:49.513Z,650.00
2023-05-02T02:55:39.873Z,642.00
2023-05-02T02:56:29.909Z,639.00
2023-05-02T02:57:19.985Z,639.00
2023-05-02T02:58:10.008Z,639.00
2023-05-02T02:59:00.075Z,648.00
2023-05-02T02:59:50.106Z,652.00
2023-05-02T03:00:40.215Z,664.00
2023-05-02T03:01:30.249Z,663.00
2023-05-02T03:02:20.297Z,654.00
2023-05-02T03:03:10.429Z,650.00
2023-05-02T03:04:00.478Z,656.00
2023-05-02T03:04:50.491Z,657.00
2023-05-02T03:05:40.584Z,665.00
2023-05-02T03:06:30.631Z,665.00
2023-05-02T03:07:20.672Z,678.00
2023-05-02T03:08:10.751Z,686.00
2023-05-02T03:09:00.784Z,684.00
2023-05-02T03:09:50.818Z,684.00
2023-05-02T03:10:40.870Z,678.00
2023-05-02T03:11:31.913Z,683.00
2023-05-02T03:12:20.949Z,682.00
2023-05-02T03:13:11.037Z,692.00
2023-05-02T03:14:01.072Z,696.00
2023-05-02T03:14:51.114Z,678.00
2023-05-02T03:15:41.236Z,688.00
2023-05-02T03:16:31.402Z,704.00
2023-05-02T03:17:22.102Z,694.00
2023-05-02T03:18:11.564Z,686.00
2023-05-02T03:19:01.585Z,692.00
2023-05-02T03:19:51.613Z,706.00
2023-05-02T03:20:41.655Z,680.00
2023-05-02T03:21:31.762Z,709.00
2023-05-02T03:22:21.735Z,716.00
2023-05-02T03:23:11.801Z,692.00
2023-05-02T03:24:01.892Z,684.00
2023-05-02T03:24:51.932Z,678.00
2023-05-02T03:25:42.014Z,708.00
2023-05-02T03:26:32.310Z,673.00
2023-05-02T03:27:22.343Z,704.00
2023-05-02T03:28:12.427Z,696.00
2023-05-02T03:29:02.515Z,716.00
2023-05-02T03:29:52.517Z,702.00
2023-05-02T03:30:42.605Z,681.00
2023-05-02T03:31:32.697Z,673.00
2023-05-02T03:32:22.733Z,665.00
2023-05-02T03:33:12.819Z,655.00
2023-05-02T03:34:02.810Z,666.00
2023-05-02T03:34:52.836Z,665.00
2023-05-02T03:35:43.189Z,665.00
2023-05-02T03:36:33.192Z,662.00
2023-05-02T03:37:23.257Z,660.00
2023-05-02T03:38:13.344Z,671.00
2023-05-02T03:39:03.409Z,663.00
2023-05-02T03:39:53.450Z,659.00
2023-05-02T03:40:43.513Z,662.00
2023-05-02T03:41:33.570Z,653.00
2023-05-02T03:42:23.610Z,656.00
2023-05-02T03:43:19.806Z,658.00
2023-05-02T03:44:04.349Z,655.00
2023-05-02T03:44:53.803Z,647.00
2023-05-02T03:45:43.896Z,651.00
2023-05-02T03:46:34.002Z,652.00
2023-05-02T03:47:24.064Z,654.00
2023-05-02T03:48:14.094Z,660.00
2023-05-02T03:49:04.097Z,653.00
2023-05-02T03:49:54.161Z,652.00
2023-05-02T03:50:44.244Z,667.00
2023-05-02T03:51:34.262Z,652.00
2023-05-02T03:52:24.331Z,659.00
2023-05-02T03:53:14.393Z,661.00
2023-05-02T03:54:04.467Z,652.00
2023-05-02T03:54:54.536Z,671.00
2023-05-02T03:55:45.359Z,672.00
2023-05-02T03:56:34.859Z,666.00
2023-05-02T03:57:24.947Z,665.00
2023-05-02T03:58:14.981Z,666.00
2023-05-02T03:59:05.098Z,662.00
2023-05-02T03:59:55.080Z,664.00
2023-05-02T04:00:45.175Z,672.00
2023-05-02T04:01:35.227Z,661.00
2023-05-02T04:02:25.385Z,666.00
2023-05-02T04:03:15.385Z,662.00
2023-05-02T04:04:05.511Z,657.00
2023-05-02T04:04:55.457Z,662.00
2023-05-02T04:05:45.640Z,657.00
2023-05-02T04:06:35.706Z,663.00
2023-05-02T04:07:25.635Z,660.00
2023-05-02T04:08:15.657Z,660.00
2023-05-02T04:09:05.785Z,661.00
2023-05-02T04:09:55.904Z,656.00
2023-05-02T04:10:46.063Z,665.00
2023-05-02T04:11:36.025Z,653.00
2023-05-02T04:12:26.082Z,660.00
2023-05-02T04:13:16.103Z,660.00
2023-05-02T04:14:06.264Z,662.00
2023-05-02T04:14:56.233Z,659.00
2023-05-02T04:15:46.305Z,656.00
2023-05-02T04:16:36.532Z,662.00
2023-05-02T04:17:26.472Z,651.00
2023-05-02T04:18:16.515Z,658.00
2023-05-02T04:19:06.596Z,659.00
2023-05-02T04:19:56.553Z,660.00
2023-05-02T04:20:46.752Z,660.00
2023-05-02T04:21:36.699Z,675.00
2023-05-02T04:22:26.805Z,661.00
2023-05-02T04:23:16.835Z,668.00
2023-05-02T04:24:06.925Z,664.00
2023-05-02T04:24:56.959Z,661.00
2023-05-02T04:25:47.400Z,664.00
2023-05-02T04:26:37.343Z,664.00
2023-05-02T04:27:27.459Z,677.00
2023-05-02T04:28:17.473Z,675.00
2023-05-02T04:29:07.575Z,663.00
2023-05-02T04:29:57.728Z,670.00
2023-05-02T04:30:47.719Z,664.00
2023-05-02T04:31:37.678Z,692.00
2023-05-02T04:32:27.957Z,664.00
2023-05-02T04:33:17.819Z,665.00
2023-05-02T04:34:07.890Z,668.00
2023-05-02T04:34:57.946Z,684.00
2023-05-02T04:35:48.092Z,676.00
2023-05-02T04:36:38.026Z,692.00
2023-05-02T04:37:28.144Z,701.00
2023-05-02T04:38:18.124Z,728.00
2023-05-02T04:39:08.284Z,707.00
2023-05-02T04:39:58.371Z,700.00
2023-05-02T04:40:48.334Z,700.00
2023-05-02T04:41:38.319Z,705.00
2023-05-02T04:42:28.476Z,718.00
2023-05-02T04:43:18.492Z,730.00
2023-05-02T04:44:08.592Z,728.00
2023-05-02T04:44:58.579Z,715.00
2023-05-02T04:45:48.818Z,730.00
2023-05-02T04:46:38.777Z,734.00
2023-05-02T04:47:28.787Z,720.00
2023-05-02T04:48:19.067Z,727.00
2023-05-02T04:49:09.143Z,722.00
2023-05-02T04:49:59.307Z,744.00
2023-05-02T04:50:49.296Z,731.00
2023-05-02T04:51:39.258Z,756.00
2023-05-02T04:52:29.373Z,723.00
2023-05-02T04:53:19.360Z,724.00
2023-05-02T04:54:09.429Z,737.00
2023-05-02T04:54:59.501Z,740.00
2023-05-02T04:55:49.589Z,731.00
2023-05-02T04:56:39.615Z,728.00
2023-05-02T04:57:29.921Z,737.00
2023-05-02T04:58:19.947Z,733.00
2023-05-02T04:59:10.018Z,736.00
2023-05-02T05:00:00.665Z,756.00
2023-05-02T05:00:50.404Z,762.00
2023-05-02T05:01:40.487Z,753.00
2023-05-02T05:02:30.599Z,743.00
2023-05-02T05:03:20.631Z,737.00
2023-05-02T05:04:10.816Z,731.00
2023-05-02T05:05:00.632Z,727.00
2023-05-02T05:05:50.698Z,743.00
2023-05-02T05:06:40.973Z,717.00
2023-05-02T05:07:30.859Z,726.00
2023-05-02T05:08:20.878Z,744.00
2023-05-02T05:09:10.954Z,729.00
2023-05-02T05:10:01.324Z,719.00
2023-05-02T05:10:51.121Z,736.00
2023-05-02T05:11:41.145Z,733.00
2023-05-02T05:12:31.251Z,695.00
2023-05-02T05:13:21.275Z,701.00
2023-05-02T05:14:11.367Z,723.00
2023-05-02T05:15:01.408Z,727.00
2023-05-02T05:15:51.758Z,710.00
2023-05-02T05:16:41.914Z,723.00
2023-05-02T05:17:31.844Z,727.00
2023-05-02T05:18:21.844Z,741.00
2023-05-02T05:19:11.914Z,731.00
2023-05-02T05:20:02.290Z,727.00
2023-05-02T05:20:52.076Z,725.00
2023-05-02T05:21:42.071Z,743.00
2023-05-02T05:22:32.139Z,745.00
2023-05-02T05:23:22.145Z,735.00
2023-05-02T05:24:12.224Z,731.00
2023-05-02T05:25:02.253Z,741.00
2023-05-02T05:25:52.322Z,755.00
2023-05-02T05:26:42.357Z,759.00
2023-05-02T05:27:32.450Z,747.00
2023-05-02T05:28:22.473Z,778.00
2023-05-02T05:29:12.546Z,772.00
2023-05-02T05:30:02.930Z,780.00
2023-05-02T05:30:52.701Z,750.00
2023-05-02T05:31:42.810Z,768.00
2023-05-02T05:32:32.841Z,751.00
2023-05-02T05:33:22.923Z,759.00
2023-05-02T05:34:12.997Z,752.00
2023-05-02T05:35:02.964Z,752.00
2023-05-02T05:35:53.079Z,753.00
2023-05-02T05:36:43.085Z,759.00
2023-05-02T05:37:33.168Z,739.00
2023-05-02T05:38:23.219Z,730.00
2023-05-02T05:39:13.276Z,733.00
2023-05-02T05:40:03.490Z,737.00
2023-05-02T05:40:53.402Z,729.00
2023-05-02T05:41:43.443Z,732.00
2023-05-02T05:42:33.516Z,742.00
2023-05-02T05:43:23.551Z,754.00
2023-05-02T05:44:13.629Z,741.00
2023-05-02T05:45:03.892Z,720.00
2023-05-02T05:45:53.962Z,740.00
2023-05-02T05:46:44.040Z,738.00
2023-05-02T05:47:34.198Z,731.00
2023-05-02T05:48:24.090Z,748.00
2023-05-02T05:49:14.153Z,748.00
2023-05-02T05:50:04.242Z,740.00
2023-05-02T05:50:54.329Z,717.00
2023-05-02T05:51:44.523Z,728.00
2023-05-02T05:52:34.626Z,744.00
2023-05-02T05:53:24.648Z,729.00
2023-05-02T05:54:14.746Z,735.00
2023-05-02T05:55:04.814Z,712.00
2023-05-02T05:55:54.845Z,724.00
2023-05-02T05:56:44.876Z,704.00
2023-05-02T05:57:34.968Z,713.00
2023-05-02T05:58:24.987Z,702.00
2023-05-02T05:59:15.064Z,706.00
2023-05-02T06:00:05.094Z,704.00
2023-05-02T06:00:55.155Z,697.00
2023-05-02T06:01:45.180Z,689.00
2023-05-02T06:02:35.351Z,689.00
2023-05-02T06:03:25.306Z,699.00
2023-05-02T06:04:15.384Z,685.00
2023-05-02T06:05:05.452Z,701.00
2023-05-02T06:05:55.490Z,695.00
2023-05-02T06:06:45.534Z,673.00
2023-05-02T06:07:35.601Z,679.00
2023-05-02T06:08:25.633Z,689.00
2023-05-02T06:09:15.712Z,663.00
2023-05-02T06:10:05.885Z,663.00
2023-05-02T06:10:55.842Z,664.00
2023-05-02T06:11:45.857Z,671.00
2023-05-02T06:12:35.949Z,671.00
2023-05-02T06:13:25.980Z,679.00
2023-05-02T06:14:16.042Z,690.00
2023-05-02T06:15:06.111Z,695.00
2023-05-02T06:15:56.245Z,708.00
2023-05-02T06:16:46.247Z,695.00
2023-05-02T06:17:36.387Z,688.00
2023-05-02T06:18:26.349Z,702.00
2023-05-02T06:19:16.427Z,694.00
2023-05-02T06:20:06.466Z,703.00
2023-05-02T06:20:56.818Z,710.00
2023-05-02T06:21:46.835Z,694.00
2023-05-02T06:22:36.936Z,694.00
2023-05-02T06:23:26.963Z,688.00
2023-05-02T06:24:17.037Z,680.00
2023-05-02T06:25:07.126Z,685.00
2023-05-02T06:25:57.208Z,678.00
2023-05-02T06:26:47.247Z,676.00
2023-05-02T06:27:37.348Z,684.00
2023-05-02T06:28:27.365Z,682.00
2023-05-02T06:29:17.436Z,701.00
2023-05-02T06:30:07.691Z,684.00
2023-05-02T06:30:57.787Z,693.00
2023-05-02T06:31:47.815Z,676.00
2023-05-02T06:32:37.903Z,696.00
2023-05-02T06:33:27.923Z,664.00
2023-05-02T06:34:17.995Z,661.00
2023-05-02T06:35:08.015Z,662.00
2023-05-02T06:35:59.196Z,663.00
2023-05-02T06:36:48.160Z,687.00
2023-05-02T06:37:38.245Z,667.00
2023-05-02T06:38:28.272Z,665.00
2023-05-02T06:39:18.350Z,662.00
2023-05-02T06:40:08.428Z,663.00
2023-05-02T06:40:58.534Z,661.00
2023-05-02T06:41:48.521Z,661.00
2023-05-02T06:42:38.607Z,672.00
2023-05-02T06:43:28.621Z,665.00
2023-05-02T06:44:18.694Z,665.00
2023-05-02T06:45:08.738Z,658.00
2023-05-02T06:45:58.853Z,657.00
2023-05-02T06:46:48.903Z,684.00
2023-05-02T06:47:38.961Z,663.00
2023-05-02T06:48:28.971Z,661.00
2023-05-02T06:49:19.049Z,665.00
2023-05-02T06:50:09.121Z,652.00
2023-05-02T06:50:59.201Z,662.00
2023-05-02T06:51:49.418Z,664.00
2023-05-02T06:52:39.501Z,663.00
2023-05-02T06:53:30.592Z,670.00
2023-05-02T06:54:19.593Z,669.00
2023-05-02T06:55:09.657Z,671.00
2023-05-02T06:55:59.739Z,672.00
2023-05-02T06:56:49.788Z,679.00
2023-05-02T06:57:39.869Z,668.00
2023-05-02T06:58:29.912Z,684.00
2023-05-02T06:59:19.943Z,688.00
2023-05-02T07:00:09.975Z,670.00
2023-05-02T07:01:00.382Z,674.00
2023-05-02T07:01:50.374Z,662.00
2023-05-02T07:02:40.513Z,659.00
2023-05-02T07:03:30.490Z,661.00
2023-05-02T07:04:20.570Z,654.00
2023-05-02T07:05:10.650Z,660.00
2023-05-02T07:06:00.812Z,665.00
2023-05-02T07:06:50.872Z,654.00
2023-05-02T07:07:40.825Z,656.00
2023-05-02T07:08:30.853Z,652.00
2023-05-02T07:09:20.933Z,662.00
2023-05-02T07:10:11.179Z,666.00
2023-05-02T07:11:01.273Z,660.00
2023-05-02T07:11:51.299Z,663.00
2023-05-02T07:12:41.417Z,662.00
2023-05-02T07:13:31.421Z,650.00
2023-05-02T07:14:21.511Z,655.00
2023-05-02T07:15:11.564Z,659.00
2023-05-02T07:16:01.784Z,659.00
2023-05-02T07:16:51.744Z,652.00
2023-05-02T07:17:41.781Z,648.00
2023-05-02T07:18:31.790Z,649.00
2023-05-02T07:19:22.124Z,648.00
2023-05-02T07:20:12.187Z,649.00
2023-05-02T07:21:02.300Z,646.00
2023-05-02T07:21:52.335Z,656.00
2023-05-02T07:22:42.376Z,657.00
2023-05-02T07:23:32.458Z,644.00
2023-05-02T07:24:22.495Z,655.00
2023-05-02T07:25:12.527Z,643.00
2023-05-02T07:26:04.304Z,655.00
2023-05-02T07:26:52.655Z,650.00
2023-05-02T07:27:42.902Z,645.00
2023-05-02T07:28:33.018Z,643.00
2023-05-02T07:29:23.071Z,643.00
2023-05-02T07:30:13.141Z,656.00
2023-05-02T07:31:03.172Z,635.00
2023-05-02T07:31:53.220Z,639.00
2023-05-02T07:32:43.313Z,636.00
2023-05-02T07:33:33.350Z,645.00
2023-05-02T07:34:23.436Z,641.00
2023-05-02T07:35:13.463Z,630.00
2023-05-02T07:36:03.561Z,638.00
2023-05-02T07:36:53.587Z,642.00
2023-05-02T07:37:43.667Z,647.00
2023-05-02T07:38:33.747Z,646.00
2023-05-02T07:39:23.831Z,651.00
2023-05-02T07:40:13.859Z,651.00
2023-05-02T07:41:04.010Z,656.00
2023-05-02T07:41:53.998Z,654.00
2023-05-02T07:42:44.067Z,668.00
2023-05-02T07:43:34.307Z,663.00
2023-05-02T07:44:24.912Z,678.00
2023-05-02T07:45:14.448Z,669.00
2023-05-02T07:46:04.882Z,668.00
2023-05-02T07:46:54.825Z,662.00
2023-05-02T07:47:44.948Z,658.00
2023-05-02T07:48:34.948Z,656.00
2023-05-02T07:49:25.010Z,661.00
2023-05-02T07:50:15.085Z,656.00
2023-05-02T07:51:05.144Z,660.00
2023-05-02T07:51:55.171Z,661.00
2023-05-02T07:52:45.246Z,660.00
2023-05-02T07:53:35.313Z,671.00
2023-05-02T07:54:25.396Z,660.00
2023-05-02T07:55:15.594Z,661.00
2023-05-02T07:56:05.683Z,649.00
2023-05-02T07:56:55.720Z,664.00
2023-05-02T07:57:45.785Z,671.00
2023-05-02T07:58:35.813Z,656.00
2023-05-02T07:59:25.891Z,646.00
2023-05-02T08:00:15.976Z,646.00
2023-05-02T08:01:06.057Z,642.00
2023-05-02T08:01:56.093Z,643.00
2023-05-02T08:02:46.210Z,640.00
2023-05-02T08:03:36.288Z,639.00
2023-05-02T08:04:26.414Z,651.00
2023-05-02T08:05:16.394Z,651.00
2023-05-02T08:06:06.476Z,641.00
2023-05-02T08:06:56.625Z,652.00
2023-05-02T08:07:46.501Z,641.00
2023-05-02T08:08:36.558Z,655.00
2023-05-02T08:09:26.716Z,671.00
2023-05-02T08:10:16.747Z,657.00
2023-05-02T08:11:06.834Z,645.00
2023-05-02T08:11:56.861Z,654.00
2023-05-02T08:12:46.972Z,646.00
2023-05-02T08:13:36.972Z,652.00
2023-05-02T08:14:28.045Z,659.00
2023-05-02T08:15:17.044Z,645.00
2023-05-02T08:16:07.185Z,636.00
2023-05-02T08:16:57.193Z,644.00
2023-05-02T08:17:47.356Z,653.00
2023-05-02T08:18:37.342Z,652.00
2023-05-02T08:19:27.414Z,646.00
2023-05-02T08:20:17.569Z,645.00
2023-05-02T08:21:08.727Z,641.00
2023-05-02T08:21:57.724Z,645.00
2023-05-02T08:22:47.796Z,642.00
2023-05-02T08:23:37.822Z,647.00
2023-05-02T08:24:27.893Z,654.00
2023-05-02T08:25:17.978Z,641.00
2023-05-02T08:26:08.042Z,648.00
2023-05-02T08:26:58.288Z,647.00
2023-05-02T08:27:48.370Z,645.00
2023-05-02T08:28:38.393Z,651.00
2023-05-02T08:29:28.724Z,646.00
2023-05-02T08:30:18.836Z,664.00
2023-05-02T08:31:08.923Z,663.00
2023-05-02T08:31:59.225Z,662.00
2023-05-02T08:32:49.283Z,655.00
2023-05-02T08:33:39.290Z,655.00
2023-05-02T08:34:29.352Z,656.00
2023-05-02T08:35:19.397Z,649.00
2023-05-02T08:36:09.459Z,645.00
2023-05-02T08:36:59.488Z,646.00
2023-05-02T08:37:49.560Z,635.00
2023-05-02T08:38:39.622Z,632.00
2023-05-02T08:39:29.697Z,629.00
2023-05-02T08:40:27.335Z,622.00
2023-05-02T08:41:10.848Z,622.00
2023-05-02T08:41:59.890Z,624.00
2023-05-02T08:42:49.952Z,628.00
2023-05-02T08:43:40.025Z,634.00
2023-05-02T08:44:30.093Z,630.00
2023-05-02T08:45:20.153Z,637.00
2023-05-02T08:46:10.225Z,638.00
2023-05-02T08:47:00.451Z,636.00
2023-05-02T08:47:50.425Z,643.00
2023-05-02T08:48:40.451Z,646.00
2023-05-02T08:49:30.513Z,644.00
2023-05-02T08:50:20.590Z,651.00
2023-05-02T08:51:10.656Z,652.00
2023-05-02T08:52:00.742Z,655.00
2023-05-02T08:52:50.768Z,639.00
2023-05-02T08:53:40.840Z,651.00
2023-05-02T08:54:30.876Z,660.00
2023-05-02T08:55:20.939Z,652.00
2023-05-02T08:56:11.245Z,649.00
2023-05-02T08:57:01.301Z,659.00
2023-05-02T08:57:51.326Z,655.00
2023-05-02T08:58:41.412Z,657.00
2023-05-02T08:59:31.476Z,661.00
2023-05-02T09:00:21.588Z,664.00
2023-05-02T09:01:11.578Z,658.00
2023-05-02T09:02:01.715Z,646.00
2023-05-02T09:02:51.785Z,652.00
2023-05-02T09:03:41.789Z,649.00
2023-05-02T09:04:31.845Z,638.00
2023-05-02T09:05:21.837Z,629.00
2023-05-02T09:06:11.930Z,624.00
2023-05-02T09:07:01.986Z,617.00
2023-05-02T09:07:52.020Z,624.00
2023-05-02T09:08:42.105Z,631.00
2023-05-02T09:09:32.169Z,629.00
2023-05-02T09:10:22.258Z,626.00
2023-05-02T09:11:12.301Z,621.00
2023-05-02T09:12:02.655Z,625.00
2023-05-02T09:12:52.654Z,619.00
2023-05-02T09:13:42.740Z,621.00
2023-05-02T09:14:32.773Z,636.00
2023-05-02T09:15:22.838Z,633.00
2023-05-02T09:16:13.056Z,635.00
2023-05-02T09:17:03.039Z,624.00
2023-05-02T09:17:52.995Z,621.00
2023-05-02T09:18:43.054Z,616.00
2023-05-02T09:19:33.138Z,627.00
2023-05-02T09:20:23.169Z,636.00
2023-05-02T09:21:13.449Z,637.00
2023-05-02T09:22:03.552Z,636.00
2023-05-02T09:22:53.581Z,630.00
2023-05-02T09:23:43.903Z,616.00
2023-05-02T09:24:33.975Z,623.00
2023-05-02T09:25:24.027Z,626.00
2023-05-02T09:26:14.350Z,634.00
2023-05-02T09:27:04.463Z,632.00
2023-05-02T09:27:54.476Z,635.00
2023-05-02T09:28:44.535Z,636.00
2023-05-02T09:29:34.600Z,645.00
2023-05-02T09:30:24.682Z,644.00
2023-05-02T09:31:16.871Z,647.00
2023-05-02T09:32:05.502Z,647.00
2023-05-02T09:32:54.940Z,640.00
2023-05-02T09:33:44.978Z,640.00
2023-05-02T09:34:35.047Z,632.00
2023-05-02T09:35:25.096Z,639.00
2023-05-02T09:36:15.151Z,641.00
2023-05-02T09:37:05.439Z,642.00
2023-05-02T09:37:55.447Z,656.00
2023-05-02T09:38:45.514Z,654.00
2023-05-02T09:39:35.849Z,645.00
2023-05-02T09:40:25.934Z,642.00
2023-05-02T09:41:15.951Z,633.00
2023-05-02T09:42:06.054Z,645.00
2023-05-02T09:42:56.079Z,651.00
2023-05-02T09:43:52.448Z,637.00
2023-05-02T09:44:36.197Z,637.00
2023-05-02T09:45:26.261Z,628.00
2023-05-02T09:46:16.356Z,628.00
2023-05-02T09:47:06.376Z,637.00
2023-05-02T09:47:56.714Z,633.00
2023-05-02T09:48:46.690Z,633.00
2023-05-02T09:49:36.762Z,632.00
2023-05-02T09:50:26.859Z,630.00
2023-05-02T09:51:16.902Z,630.00
2023-05-02T09:52:06.987Z,638.00
2023-05-02T09:52:57.027Z,629.00
2023-05-02T09:53:47.054Z,637.00
2023-05-02T09:54:37.180Z,639.00
2023-05-02T09:55:27.168Z,637.00
2023-05-02T09:56:17.242Z,631.00
2023-05-02T09:57:07.760Z,633.00
2023-05-02T09:57:57.609Z,636.00
2023-05-02T09:58:47.676Z,630.00
2023-05-02T09:59:37.739Z,643.00
2023-05-02T10:00:27.815Z,641.00
2023-05-02T10:01:17.981Z,643.00
2023-05-02T10:02:07.950Z,651.00
2023-05-02T10:02:58.046Z,648.00
2023-05-02T10:03:48.181Z,647.00
2023-05-02T10:04:38.246Z,646.00
2023-05-02T10:05:28.141Z,648.00
2023-05-02T10:06:18.507Z,649.00
2023-05-02T10:07:08.564Z,642.00
2023-05-02T10:07:58.596Z,640.00
2023-05-02T10:08:48.628Z,639.00
2023-05-02T10:09:38.690Z,641.00
2023-05-02T10:10:28.759Z,644.00
2023-05-02T10:11:19.138Z,640.00
2023-05-02T10:12:08.898Z,641.00
2023-05-02T10:12:58.925Z,641.00
2023-05-02T10:13:48.972Z,628.00
2023-05-02T10:14:39.038Z,630.00
2023-05-02T10:15:29.060Z,635.00
2023-05-02T10:16:19.198Z,637.00
2023-05-02T10:17:09.203Z,632.00
2023-05-02T10:17:59.311Z,630.00
2023-05-02T10:18:49.314Z,624.00
2023-05-02T10:19:39.375Z,615.00
2023-05-02T10:20:29.439Z,608.00
2023-05-02T10:21:19.512Z,615.00
2023-05-02T10:22:09.852Z,627.00
2023-05-02T10:22:59.856Z,623.00
2023-05-02T10:23:49.922Z,627.00
2023-05-02T10:24:39.997Z,616.00